Time;durP1;ratioP1;P1;durP2;ratioP2;P2;SDS_P1;SDS_P2;PMS_P1;PMS_P2;Temp;Humidity;BMP_temperature;BMP_pressure;BME280_temperature;BME280_humidity;BME280_pressure;Samples;Min_cycle;Max_cycle;Signal;HPM_P1;HPM_P2
2022/06/24 00:01:14;;;;;;;1.00;1.00;;;25.10;68.90;;;;;;5048947;28;43850;-71
2022/06/24 00:03:44;;;;;;;1.30;1.20;;;25.20;68.80;;;;;;5061660;28;43834;-70
2022/06/24 00:06:14;;;;;;;1.07;1.07;;;25.20;68.40;;;;;;5061555;28;44131;-69
2022/06/24 00:08:53;;;;;;;1.10;1.10;;;25.20;68.40;;;;;;5067236;28;43706;-70
2022/06/24 00:11:28;;;;;;;1.00;1.00;;;25.10;69.50;;;;;;5067405;28;43945;-70
2022/06/24 00:14:07;;;;;;;0.97;0.97;;;24.90;69.40;;;;;;5067965;28;43889;-69
2022/06/24 00:16:56;;;;;;;1.00;1.00;;;24.70;69.90;;;;;;5048813;28;46798;-71
2022/06/24 00:19:25;;;;;;;1.10;1.10;;;24.50;70.40;;;;;;5067261;28;43405;-71
2022/06/24 00:22:06;;;;;;;1.40;1.30;;;24.30;70.70;;;;;;5067231;28;43974;-70
2022/06/24 00:24:35;;;;;;;0.90;0.90;;;24.20;71.10;;;;;;5067738;28;43387;-69
2022/06/24 00:27:05;;;;;;;2.00;1.13;;;24.10;71.20;;;;;;5048721;28;47250;-70
2022/06/24 00:29:33;;;;;;;1.03;1.03;;;24.10;71.60;;;;;;5047431;28;44832;-70
2022/06/24 00:32:03;;;;;;;1.00;1.00;;;24.00;71.70;;;;;;5067213;28;43988;-69
2022/06/24 00:34:31;;;;;;;0.80;0.80;;;23.90;71.90;;;;;;5067283;28;43490;-71
2022/06/24 00:36:59;;;;;;;1.10;1.10;;;23.90;72.00;;;;;;5066953;28;43886;-70
2022/06/24 00:39:34;;;;;;;1.00;1.00;;;23.90;72.20;;;;;;5066524;28;43427;-71
2022/06/24 00:42:02;;;;;;;0.90;0.90;;;23.90;72.20;;;;;;5066810;28;43967;-71
2022/06/24 00:44:50;;;;;;;1.10;1.10;;;23.90;72.30;;;;;;5067356;28;43971;-70
2022/06/24 00:47:18;;;;;;;1.10;1.10;;;23.80;72.20;;;;;;5066633;28;43912;-70
2022/06/24 00:49:47;;;;;;;0.90;0.90;;;23.80;72.30;;;;;;5066671;28;43945;-71
2022/06/24 00:52:15;;;;;;;1.10;1.10;;;23.80;72.40;;;;;;5067148;28;43952;-69
2022/06/24 00:54:44;;;;;;;0.90;0.90;;;23.80;73.10;;;;;;5067500;28;43896;-69
2022/06/24 00:57:12;;;;;;;1.00;1.00;;;23.90;73.10;;;;;;5066405;28;43920;-69
2022/06/24 00:59:42;;;;;;;1.10;1.10;;;24.00;72.60;;;;;;5066203;28;43995;-70
2022/06/24 01:02:11;;;;;;;0.80;0.80;;;24.20;72.10;;;;;;5066319;28;43317;-70
2022/06/24 01:04:39;;;;;;;0.93;0.93;;;24.40;71.40;;;;;;5067064;28;43952;-70
2022/06/24 01:07:07;;;;;;;1.10;1.10;;;24.60;70.80;;;;;;5066361;28;43912;-70
2022/06/24 01:09:35;;;;;;;0.90;0.90;;;24.70;70.30;;;;;;5066444;28;44055;-70
2022/06/24 01:12:04;;;;;;;1.00;1.00;;;24.80;70.00;;;;;;5066455;28;43886;-70
2022/06/24 01:14:32;;;;;;;1.00;1.00;;;24.90;69.70;;;;;;5067058;28;43351;-71
2022/06/24 01:17:02;;;;;;;0.77;0.77;;;25.00;69.40;;;;;;5066102;28;43965;-70
2022/06/24 01:19:30;;;;;;;0.83;0.83;;;25.00;69.10;;;;;;5065989;28;43444;-70
2022/06/24 01:22:01;;;;;;;0.90;0.90;;;25.10;68.80;;;;;;5066588;28;43454;-69
2022/06/24 01:24:32;;;;;;;0.87;0.87;;;25.00;68.90;;;;;;5048470;28;44105;-70
2022/06/24 01:27:01;;;;;;;1.00;1.00;;;24.90;69.30;;;;;;5066383;28;43944;-70
2022/06/24 01:29:29;;;;;;;0.60;0.60;;;24.70;69.60;;;;;;5066405;28;44071;-70
2022/06/24 01:31:57;;;;;;;0.90;0.90;;;24.60;70.20;;;;;;5047908;28;44070;-70
2022/06/24 01:34:26;;;;;;;0.80;0.80;;;24.40;70.60;;;;;;5066677;28;43372;-71
2022/06/24 01:36:54;;;;;;;0.80;0.80;;;24.30;70.90;;;;;;5066110;28;43873;-71
2022/06/24 01:39:24;;;;;;;1.00;1.00;;;24.10;71.10;;;;;;5065821;28;43372;-70
2022/06/24 01:41:52;;;;;;;1.00;1.00;;;24.10;71.50;;;;;;5066157;28;43921;-70
2022/06/24 01:44:20;;;;;;;0.87;0.87;;;24.00;72.30;;;;;;5066640;28;44018;-70
2022/06/24 01:46:48;;;;;;;0.73;0.73;;;23.90;71.80;;;;;;5065954;28;43957;-70
2022/06/24 01:49:16;;;;;;;0.80;0.80;;;23.90;72.00;;;;;;5066523;28;43945;-70
2022/06/24 01:51:45;;;;;;;0.87;0.87;;;23.90;72.20;;;;;;5066292;28;43770;-71
2022/06/24 01:54:13;;;;;;;0.80;0.80;;;23.80;72.70;;;;;;5048307;28;44034;-70
2022/06/24 01:56:42;;;;;;;0.90;0.90;;;23.90;73.00;;;;;;5065908;28;44784;-70
2022/06/24 01:59:14;;;;;;;0.90;0.90;;;24.00;72.80;;;;;;5047609;28;43948;-69
2022/06/24 02:01:42;;;;;;;0.80;0.80;;;24.10;72.20;;;;;;5065483;28;43317;-70
2022/06/24 02:04:10;;;;;;;0.90;0.90;;;24.30;71.90;;;;;;5069922;28;43995;-70
2022/06/24 02:06:38;;;;;;;0.90;0.90;;;24.40;71.20;;;;;;5069458;28;43924;-71
2022/06/24 02:09:06;;;;;;;0.90;0.90;;;24.60;70.80;;;;;;5069379;28;43358;-69
2022/06/24 02:14:21;;;;;;;0.90;0.90;;;24.80;69.90;;;;;;5063044;28;44075;-71
2022/06/24 02:16:49;;;;;;;1.00;0.83;;;24.90;69.60;;;;;;5062613;28;44007;-69
2022/06/24 02:19:17;;;;;;;0.73;0.73;;;25.00;69.30;;;;;;5063116;28;43937;-71
2022/06/24 02:21:45;;;;;;;0.97;0.97;;;25.10;69.00;;;;;;5041509;28;43440;-69
2022/06/24 02:24:15;;;;;;;0.80;0.80;;;25.20;68.70;;;;;;5063394;28;43916;-69
2022/06/24 02:26:43;;;;;;;0.77;0.77;;;25.20;68.50;;;;;;5062975;28;43968;-69
2022/06/24 02:29:12;;;;;;;1.03;0.80;;;25.00;68.80;;;;;;5068968;28;43409;-70
2022/06/24 02:31:42;;;;;;;0.83;0.83;;;24.80;69.20;;;;;;5068796;28;43976;-70
2022/06/24 02:34:10;;;;;;;0.73;0.73;;;24.70;69.80;;;;;;5069301;28;44015;-70
2022/06/24 02:36:38;;;;;;;0.80;0.80;;;24.50;70.30;;;;;;5068885;28;43956;-70
2022/06/24 02:39:06;;;;;;;0.80;0.80;;;24.40;70.60;;;;;;5068957;28;43883;-71
2022/06/24 02:41:34;;;;;;;0.90;0.90;;;24.20;70.90;;;;;;5068551;28;44004;-70
2022/06/24 02:44:02;;;;;;;0.80;0.80;;;24.10;71.10;;;;;;5069285;28;44061;-70
2022/06/24 02:46:30;;;;;;;1.00;1.00;;;24.10;71.40;;;;;;5050459;28;45714;-71
2022/06/24 02:49:01;;;;;;;0.80;0.80;;;24.00;71.60;;;;;;5068679;28;43481;-70
2022/06/24 02:51:29;;;;;;;0.87;0.87;;;23.90;71.70;;;;;;5068594;28;43950;-70
2022/06/24 02:53:57;;;;;;;0.70;0.70;;;23.90;71.90;;;;;;5069110;28;43261;-71
2022/06/24 02:56:25;;;;;;;0.90;0.90;;;23.90;72.70;;;;;;5068303;28;44031;-70
2022/06/24 02:58:53;;;;;;;0.70;0.70;;;23.90;72.10;;;;;;5068625;28;43918;-71
2022/06/24 03:01:21;;;;;;;0.80;0.80;;;23.80;72.10;;;;;;5067992;28;44051;-70
2022/06/24 03:03:49;;;;;;;0.90;0.90;;;23.80;72.20;;;;;;5068897;28;44078;-70
2022/06/24 03:06:21;;;;;;;0.90;0.90;;;23.80;72.20;;;;;;5068196;28;44137;-70
2022/06/24 03:08:58;;;;;;;1.00;1.00;;;23.80;72.20;;;;;;5068131;28;43893;-70
2022/06/24 03:11:30;;;;;;;0.80;0.80;;;23.70;72.20;;;;;;5068312;28;44086;-70
2022/06/24 03:13:58;;;;;;;1.00;1.00;;;23.80;73.20;;;;;;5068779;28;43360;-71
2022/06/24 03:16:27;;;;;;;0.70;0.70;;;23.90;73.20;;;;;;5068288;28;44004;-69
2022/06/24 03:18:55;;;;;;;0.80;0.80;;;24.00;72.60;;;;;;5068053;28;44051;-70
2022/06/24 03:21:25;;;;;;;0.90;0.90;;;24.20;72.00;;;;;;5068229;28;43774;-70
2022/06/24 03:23:53;;;;;;;0.83;0.83;;;24.40;71.40;;;;;;5068705;28;44537;-70
2022/06/24 03:26:21;;;;;;;1.30;1.03;;;24.60;70.90;;;;;;5068080;28;43904;-70
2022/06/24 03:28:49;;;;;;;0.93;0.93;;;24.70;70.30;;;;;;5068013;28;43841;-70
2022/06/24 03:31:17;;;;;;;0.90;0.90;;;24.80;70.00;;;;;;5068235;28;43977;-71
2022/06/24 03:33:59;;;;;;;0.70;0.70;;;24.90;69.70;;;;;;5068733;28;43320;-70
2022/06/24 03:36:38;;;;;;;0.80;0.80;;;25.00;69.40;;;;;;5068026;28;44045;-71
2022/06/24 03:39:11;;;;;;;2.93;1.00;;;25.10;69.10;;;;;;5067762;28;43905;-69
2022/06/24 03:41:43;;;;;;;1.77;1.20;;;25.00;68.80;;;;;;5068409;28;43913;-70
2022/06/24 03:44:16;;;;;;;5.73;1.63;;;25.00;69.00;;;;;;5068292;28;43919;-70
2022/06/24 03:46:54;;;;;;;4.67;1.83;;;24.80;69.40;;;;;;5067869;28;43976;-70
2022/06/24 03:49:30;;;;;;;4.37;2.00;;;24.70;69.90;;;;;;5067898;28;43999;-70
2022/06/24 03:52:09;;;;;;;4.90;2.13;;;24.50;70.40;;;;;;5067982;28;43956;-70
2022/06/24 03:54:46;;;;;;;3.83;2.10;;;24.30;70.60;;;;;;5068473;28;44051;-70
2022/06/24 03:57:23;;;;;;;6.37;2.20;;;24.20;70.90;;;;;;5067833;28;44693;-70
2022/06/24 03:59:56;;;;;;;3.77;2.37;;;24.10;71.20;;;;;;5067795;28;43979;-70
2022/06/24 04:02:30;;;;;;;3.47;2.10;;;24.00;71.50;;;;;;5045292;28;43980;-71
2022/06/24 04:05:03;;;;;;;3.47;2.27;;;24.00;71.80;;;;;;5047907;28;44015;-71
2022/06/24 04:07:32;;;;;;;3.20;2.30;;;23.90;71.90;;;;;;5047273;28;44348;-70
2022/06/24 04:10:00;;;;;;;3.57;2.50;;;23.90;72.10;;;;;;5047427;28;43951;-69
2022/06/24 04:12:28;;;;;;;2.97;2.20;;;23.80;72.20;;;;;;5047418;28;44044;-70
2022/06/24 04:15:17;;;;;;;3.43;2.20;;;23.80;72.20;;;;;;5047845;28;43343;-70
2022/06/24 04:17:45;;;;;;;3.80;2.57;;;23.80;73.00;;;;;;5045777;28;47212;-69
2022/06/24 04:20:14;;;;;;;2.40;2.20;;;23.80;72.90;;;;;;5047200;28;43944;-71
2022/06/24 04:22:46;;;;;;;3.20;2.17;;;24.00;72.90;;;;;;5047474;28;43905;-70
2022/06/24 04:25:14;;;;;;;2.70;2.23;;;24.10;72.40;;;;;;5047080;28;43994;-69
2022/06/24 04:27:42;;;;;;;3.30;1.83;;;24.30;71.90;;;;;;5047157;28;43912;-70
2022/06/24 04:30:11;;;;;;;3.80;2.30;;;24.40;71.30;;;;;;5046885;28;43995;-71
2022/06/24 04:32:39;;;;;;;2.30;2.20;;;24.50;70.80;;;;;;5047359;28;44006;-70
2022/06/24 04:35:08;;;;;;;4.13;2.50;;;24.70;70.40;;;;;;5047347;28;43861;-70
2022/06/24 04:37:37;;;;;;;3.80;2.10;;;24.80;70.00;;;;;;5045796;28;45397;-70
2022/06/24 04:40:08;;;;;;;3.47;2.40;;;24.90;69.60;;;;;;5046798;28;43383;-70
2022/06/24 04:42:36;;;;;;;2.33;2.10;;;25.00;69.40;;;;;;5047060;28;43950;-70
2022/06/24 04:45:04;;;;;;;3.57;2.20;;;25.10;69.30;;;;;;5047450;28;43980;-70
2022/06/24 04:47:32;;;;;;;4.57;2.20;;;25.10;68.90;;;;;;5046833;28;43957;-70
2022/06/24 04:50:02;;;;;;;3.50;2.27;;;25.20;68.60;;;;;;5046481;28;43961;-70
2022/06/24 04:52:31;;;;;;;2.80;2.20;;;25.10;68.40;;;;;;5047033;28;43764;-71
2022/06/24 04:55:00;;;;;;;3.83;3.00;;;25.00;68.80;;;;;;5047212;28;43962;-70
2022/06/24 04:57:29;;;;;;;3.07;2.63;;;24.80;69.10;;;;;;5046813;28;43576;-70
2022/06/24 04:59:57;;;;;;;4.57;3.70;;;24.70;69.80;;;;;;5046474;28;43808;-70
2022/06/24 05:02:25;;;;;;;5.70;3.33;;;24.50;70.90;;;;;;5063446;28;43905;-69
2022/06/24 05:04:53;;;;;;;4.07;3.50;;;24.30;70.40;;;;;;5067250;28;44031;-70
2022/06/24 05:07:21;;;;;;;3.23;2.70;;;24.20;70.80;;;;;;5066864;28;43936;-70
2022/06/24 05:09:51;;;;;;;6.20;3.77;;;24.10;71.10;;;;;;5066586;28;43923;-70
2022/06/24 05:12:21;;;;;;;3.10;2.80;;;24.00;71.30;;;;;;5066790;28;43929;-70
2022/06/24 05:14:51;;;;;;;5.00;3.03;;;24.00;71.60;;;;;;5067228;28;43887;-70
2022/06/24 05:17:26;;;;;;;2.50;2.30;;;23.90;71.80;;;;;;5048138;28;45896;-70
2022/06/24 05:19:54;;;;;;;5.80;3.60;;;23.90;72.00;;;;;;5066223;28;43458;-69
2022/06/24 05:22:22;;;;;;;4.03;2.80;;;23.80;72.00;;;;;;5066558;28;44047;-69
2022/06/24 05:24:50;;;;;;;2.87;2.67;;;23.80;72.10;;;;;;5048669;28;44000;-70
2022/06/24 05:27:19;;;;;;;3.13;2.83;;;23.70;72.00;;;;;;5066565;28;44014;-70
2022/06/24 05:29:47;;;;;;;3.53;3.20;;;23.70;72.10;;;;;;5066655;28;43982;-70
2022/06/24 05:32:19;;;;;;;3.93;3.30;;;23.70;72.20;;;;;;5066655;28;43985;-70
2022/06/24 05:34:47;;;;;;;3.73;3.10;;;23.70;72.40;;;;;;5066985;28;44054;-70
2022/06/24 05:37:15;;;;;;;4.47;3.40;;;23.70;73.10;;;;;;5067335;28;44780;-70
2022/06/24 05:39:43;;;;;;;3.80;3.40;;;23.80;73.10;;;;;;5069762;28;43992;-70
2022/06/24 05:42:11;;;;;;;3.43;3.03;;;24.00;72.80;;;;;;5070133;28;43994;-70
2022/06/24 05:44:39;;;;;;;4.40;2.93;;;24.20;72.10;;;;;;5070379;28;43975;-70
2022/06/24 05:47:07;;;;;;;3.43;3.13;;;24.30;71.50;;;;;;5069764;28;44106;-69
2022/06/24 05:49:36;;;;;;;4.50;3.10;;;24.50;70.90;;;;;;5069632;28;43975;-70
2022/06/24 05:52:08;;;;;;;4.37;3.33;;;24.70;70.60;;;;;;5070092;28;43984;-71
2022/06/24 05:57:21;;;;;;;5.88;3.13;;;24.80;69.60;;;;;;5069724;28;44035;-70
2022/06/24 05:59:49;;;;;;;3.13;2.93;;;24.90;69.30;;;;;;5069564;28;43783;-70
2022/06/24 06:02:18;;;;;;;3.33;3.03;;;25.00;69.00;;;;;;5050909;28;43925;-70
2022/06/24 06:04:48;;;;;;;3.10;2.90;;;25.00;68.80;;;;;;5070141;28;43491;-70
2022/06/24 06:07:16;;;;;;;4.13;3.23;;;24.90;69.00;;;;;;5069873;28;43905;-70
2022/06/24 06:09:46;;;;;;;3.80;3.50;;;24.80;69.30;;;;;;5069707;28;43907;-70
2022/06/24 06:12:14;;;;;;;4.40;3.60;;;24.60;69.80;;;;;;5069797;28;43955;-70
2022/06/24 06:14:42;;;;;;;3.30;3.10;;;24.40;70.30;;;;;;5069943;28;43825;-70
2022/06/24 06:17:10;;;;;;;3.73;3.47;;;24.30;70.60;;;;;;5069095;28;43956;-70
2022/06/24 06:19:38;;;;;;;3.20;2.90;;;24.10;70.90;;;;;;5069389;28;43865;-70
2022/06/24 06:22:13;;;;;;;3.17;2.97;;;24.00;71.20;;;;;;5069335;28;43960;-70
2022/06/24 06:24:44;;;;;;;3.17;2.97;;;24.00;71.60;;;;;;5070123;28;44015;-70
2022/06/24 06:27:12;;;;;;;3.00;2.77;;;23.90;71.70;;;;;;5050902;28;46439;-71
2022/06/24 06:29:40;;;;;;;3.60;3.30;;;23.80;72.60;;;;;;5069179;28;44083;-70
2022/06/24 06:32:08;;;;;;;2.90;2.70;;;23.80;72.10;;;;;;5069100;28;43974;-72
2022/06/24 06:34:36;;;;;;;3.33;3.13;;;23.70;72.00;;;;;;5069774;28;43986;-69
2022/06/24 06:37:05;;;;;;;3.57;3.27;;;23.70;72.20;;;;;;5068967;28;43884;-70
2022/06/24 06:39:36;;;;;;;3.40;3.10;;;23.70;72.30;;;;;;5068965;28;43932;-71
2022/06/24 06:42:05;;;;;;;3.50;3.30;;;23.70;72.80;;;;;;5068942;28;43960;-71
2022/06/24 06:44:44;;;;;;;3.40;3.20;;;23.70;73.10;;;;;;5051410;28;43991;-69
2022/06/24 06:47:12;;;;;;;3.53;3.10;;;23.80;73.10;;;;;;5062063;28;44406;-70
2022/06/24 06:49:40;;;;;;;3.30;3.10;;;24.00;72.80;;;;;;5061768;28;43979;-71
2022/06/24 06:52:09;;;;;;;2.80;2.70;;;24.10;72.10;;;;;;5040666;28;44008;-70
2022/06/24 06:54:38;;;;;;;4.00;3.33;;;24.30;71.70;;;;;;5062621;28;43842;-70
2022/06/24 06:57:06;;;;;;;3.10;2.90;;;24.40;71.20;;;;;;5062435;28;43992;-71
2022/06/24 06:59:35;;;;;;;3.20;3.00;;;24.50;70.70;;;;;;5062628;28;44037;-71
2022/06/24 07:02:04;;;;;;;3.80;3.50;;;24.70;70.20;;;;;;5068561;28;44072;-71
2022/06/24 07:04:32;;;;;;;3.47;3.17;;;24.80;69.90;;;;;;5069197;28;43815;-70
2022/06/24 07:07:00;;;;;;;3.40;3.20;;;24.80;69.50;;;;;;5068728;28;43963;-70
2022/06/24 07:09:28;;;;;;;3.10;3.00;;;24.90;69.20;;;;;;5068396;28;43364;-70
2022/06/24 07:11:57;;;;;;;3.40;3.20;;;25.00;69.00;;;;;;5068539;28;43873;-70
2022/06/24 07:14:25;;;;;;;3.27;3.07;;;25.10;68.80;;;;;;5069168;28;44079;-70
2022/06/24 07:17:01;;;;;;;3.37;3.17;;;25.10;68.50;;;;;;5050238;28;47332;-71
2022/06/24 07:19:44;;;;;;;3.33;3.03;;;25.00;68.60;;;;;;5068618;28;43431;-72
2022/06/24 07:22:39;;;;;;;3.23;3.03;;;24.80;69.00;;;;;;5050246;28;44040;-70
2022/06/24 07:25:26;;;;;;;2.93;2.83;;;24.60;69.60;;;;;;5067633;28;43596;-70
2022/06/24 07:28:11;;;;;;;3.20;3.00;;;24.40;70.10;;;;;;5068301;28;44046;-71
2022/06/24 07:30:54;;;;;;;2.93;2.73;;;24.30;70.60;;;;;;5046865;28;44767;-69
2022/06/24 07:33:36;;;;;;;3.27;3.07;;;24.10;71.00;;;;;;5063630;28;44000;-70
2022/06/24 07:36:21;;;;;;;3.27;3.07;;;24.00;71.40;;;;;;5069030;28;44035;-70
2022/06/24 07:39:04;;;;;;;2.80;2.70;;;23.90;71.60;;;;;;5049819;28;45525;-71
2022/06/24 07:41:47;;;;;;;3.17;2.97;;;23.80;71.80;;;;;;5068064;28;44110;-70
2022/06/24 07:44:30;;;;;;;2.73;2.53;;;23.80;72.10;;;;;;5049668;28;43440;-70
2022/06/24 07:47:14;;;;;;;3.17;3.00;;;23.70;72.10;;;;;;5068508;28;43472;-70
2022/06/24 07:49:56;;;;;;;3.23;3.03;;;23.70;72.30;;;;;;5049609;28;45675;-69
2022/06/24 07:52:30;;;;;;;3.30;3.00;;;23.70;72.40;;;;;;5049402;28;44711;-70
2022/06/24 07:57:51;;;;;;;2.77;2.63;;;23.60;72.40;;;;;;5068375;28;43888;-70
2022/06/24 08:00:20;;;;;;;3.30;3.10;;;23.60;72.60;;;;;;5066649;28;44049;-70
2022/06/24 08:02:51;;;;;;;3.00;2.90;;;23.60;73.30;;;;;;5027197;28;44064;-71
2022/06/24 08:05:19;;;;;;;3.43;3.10;;;23.70;73.40;;;;;;5026202;28;44052;-69
2022/06/24 08:07:47;;;;;;;3.10;2.90;;;23.90;73.10;;;;;;5021671;28;43384;-69
2022/06/24 08:10:15;;;;;;;2.63;2.53;;;24.00;72.30;;;;;;5021293;28;43972;-70
2022/06/24 08:12:43;;;;;;;3.20;3.00;;;24.20;71.90;;;;;;5021354;28;43845;-70
2022/06/24 08:15:14;;;;;;;2.50;2.40;;;24.40;71.20;;;;;;5021253;28;43413;-71
2022/06/24 08:17:43;;;;;;;3.17;2.97;;;24.50;70.80;;;;;;5021627;28;43894;-70
2022/06/24 08:20:12;;;;;;;2.83;2.70;;;24.70;70.40;;;;;;5025691;28;46306;-70
2022/06/24 08:22:40;;;;;;;2.70;2.60;;;24.70;69.90;;;;;;5025504;28;44941;-70
2022/06/24 08:25:09;;;;;;;2.80;2.70;;;24.80;69.60;;;;;;5027139;28;43972;-71
2022/06/24 08:27:52;;;;;;;3.00;2.80;;;24.90;69.40;;;;;;5027656;28;43902;-70
2022/06/24 08:30:20;;;;;;;2.93;2.83;;;24.90;69.00;;;;;;5027192;28;44069;-70
2022/06/24 08:32:50;;;;;;;2.90;2.70;;;24.80;69.00;;;;;;5027041;28;44058;-69
2022/06/24 08:35:18;;;;;;;3.00;2.80;;;24.70;69.40;;;;;;5027125;28;43893;-70
2022/06/24 08:38:01;;;;;;;2.80;2.70;;;24.50;69.80;;;;;;5027415;28;44006;-71
2022/06/24 08:40:37;;;;;;;2.40;2.30;;;24.30;70.30;;;;;;5026621;28;43875;-70
2022/06/24 08:43:19;;;;;;;2.70;2.60;;;24.20;70.70;;;;;;5027370;28;43453;-70
2022/06/24 08:45:57;;;;;;;2.47;2.37;;;24.10;71.20;;;;;;5025404;28;43903;-70
2022/06/24 08:48:40;;;;;;;2.30;2.20;;;24.00;71.50;;;;;;5027460;28;43857;-70
2022/06/24 08:51:17;;;;;;;2.50;2.40;;;23.90;71.80;;;;;;5026748;28;43915;-70
2022/06/24 08:53:50;;;;;;;2.50;2.40;;;23.80;72.00;;;;;;5026879;28;43945;-69
2022/06/24 08:56:40;;;;;;;2.90;2.70;;;23.80;72.10;;;;;;5023481;28;43935;-70
2022/06/24 08:59:11;;;;;;;2.70;2.60;;;23.70;72.20;;;;;;5027281;28;43976;-70
2022/06/24 09:01:40;;;;;;;2.57;2.47;;;23.70;72.30;;;;;;5047464;28;44003;-71
2022/06/24 09:04:10;;;;;;;2.13;2.13;;;23.70;72.50;;;;;;5066796;28;43929;-70
2022/06/24 09:06:39;;;;;;;2.77;2.67;;;23.60;73.00;;;;;;5067009;28;43829;-70
2022/06/24 09:09:07;;;;;;;2.43;2.40;;;23.60;73.20;;;;;;5067377;28;43390;-70
2022/06/24 09:11:39;;;;;;;2.60;2.50;;;23.70;73.10;;;;;;5066423;28;44702;-71
2022/06/24 09:14:08;;;;;;;2.40;2.30;;;23.90;72.80;;;;;;5066429;28;43967;-70
2022/06/24 09:16:36;;;;;;;2.27;2.27;;;24.00;72.40;;;;;;5066692;28;43932;-70
2022/06/24 09:19:15;;;;;;;2.60;2.50;;;24.20;71.90;;;;;;5067126;28;44115;-70
2022/06/24 09:21:43;;;;;;;2.30;2.30;;;24.30;71.30;;;;;;5066658;28;44985;-71
2022/06/24 09:24:12;;;;;;;2.40;2.30;;;24.40;70.90;;;;;;5066548;28;44052;-70
2022/06/24 09:26:41;;;;;;;2.27;2.23;;;24.50;70.40;;;;;;5066509;28;43399;-71
2022/06/24 09:29:11;;;;;;;2.13;2.10;;;24.70;70.30;;;;;;5060284;28;43413;-69
2022/06/24 09:31:39;;;;;;;2.33;2.23;;;24.70;69.80;;;;;;5066464;28;43790;-70
2022/06/24 09:34:12;;;;;;;2.50;2.40;;;24.80;69.60;;;;;;5066278;28;44007;-70
2022/06/24 09:36:42;;;;;;;2.30;2.20;;;24.90;69.40;;;;;;5066633;28;43339;-70
2022/06/24 09:39:11;;;;;;;2.63;2.53;;;24.90;69.00;;;;;;5067048;28;43771;-69
2022/06/24 09:41:49;;;;;;;2.50;2.40;;;24.90;69.20;;;;;;5066539;28;43983;-70
2022/06/24 09:44:17;;;;;;;2.30;2.20;;;24.70;69.40;;;;;;5066214;28;43892;-71
2022/06/24 09:46:46;;;;;;;2.43;2.33;;;24.50;69.90;;;;;;5066731;28;43906;-71
2022/06/24 09:49:15;;;;;;;2.40;2.30;;;24.40;70.20;;;;;;5066901;28;43853;-70
2022/06/24 09:51:45;;;;;;;2.13;2.13;;;24.30;70.60;;;;;;5066078;28;43971;-70
2022/06/24 09:54:14;;;;;;;2.23;2.13;;;24.10;70.90;;;;;;5066526;28;43881;-69
2022/06/24 09:56:44;;;;;;;2.10;2.10;;;24.00;71.20;;;;;;5066382;28;43763;-69
2022/06/24 10:01:59;;;;;;;2.00;2.00;;;23.90;71.80;;;;;;5047654;28;46549;-69
2022/06/24 10:04:29;;;;;;;2.23;2.13;;;23.80;71.90;;;;;;5047909;28;43933;-69
2022/06/24 10:06:58;;;;;;;2.17;2.10;;;23.70;72.00;;;;;;5066258;28;43359;-71
2022/06/24 10:09:29;;;;;;;2.20;2.20;;;23.70;72.00;;;;;;5066671;28;43862;-70
2022/06/24 10:11:58;;;;;;;2.13;2.13;;;23.70;72.20;;;;;;5047460;28;45598;-70
2022/06/24 10:14:26;;;;;;;2.40;2.40;;;23.70;73.00;;;;;;5065748;28;43944;-71
2022/06/24 10:16:54;;;;;;;2.33;2.23;;;23.70;72.30;;;;;;5066023;28;43990;-70
2022/06/24 10:19:22;;;;;;;2.10;2.10;;;23.60;72.30;;;;;;5066457;28;43946;-70
2022/06/24 10:21:51;;;;;;;1.80;1.80;;;23.70;72.50;;;;;;5065798;28;44945;-69
2022/06/24 10:24:24;;;;;;;2.03;2.03;;;23.60;72.40;;;;;;5068140;28;44032;-70
2022/06/24 10:26:52;;;;;;;2.10;2.00;;;23.60;72.40;;;;;;5069464;28;43434;-69
2022/06/24 10:29:25;;;;;;;2.10;2.10;;;23.60;73.20;;;;;;5069603;28;43969;-70
2022/06/24 10:32:04;;;;;;;2.20;2.10;;;23.70;73.20;;;;;;5068995;28;43935;-70
2022/06/24 10:34:41;;;;;;;1.93;1.93;;;23.90;73.70;;;;;;5069135;28;43900;-71
2022/06/24 10:37:26;;;;;;;1.97;1.97;;;24.00;72.30;;;;;;5069421;28;43857;-70
2022/06/24 10:39:56;;;;;;;2.10;2.00;;;24.20;71.80;;;;;;5069575;28;43740;-70
2022/06/24 10:42:24;;;;;;;1.80;1.80;;;24.40;71.30;;;;;;5069066;28;43877;-70
2022/06/24 10:45:00;;;;;;;1.60;1.60;;;24.40;70.80;;;;;;5068697;28;43909;-70
2022/06/24 10:47:39;;;;;;;1.93;1.93;;;24.50;70.40;;;;;;5069175;28;43941;-70
2022/06/24 10:50:18;;;;;;;1.90;1.90;;;24.70;70.20;;;;;;5069601;28;43379;-70
2022/06/24 10:53:02;;;;;;;1.90;1.90;;;24.70;69.90;;;;;;5050493;28;47268;-70
2022/06/24 10:55:38;;;;;;;1.60;1.60;;;24.80;69.70;;;;;;5068865;28;43931;-70
2022/06/24 10:58:09;;;;;;;1.80;1.80;;;24.80;69.60;;;;;;5050460;28;43889;-70
2022/06/24 11:00:48;;;;;;;1.97;1.97;;;24.70;70.00;;;;;;5069038;28;43952;-70
2022/06/24 11:03:18;;;;;;;1.70;1.70;;;24.50;70.30;;;;;;5068716;28;44012;-71
2022/06/24 11:05:47;;;;;;;1.50;1.50;;;24.40;70.40;;;;;;5068852;28;44171;-72
2022/06/24 11:08:16;;;;;;;1.50;1.50;;;24.20;70.70;;;;;;5050777;28;44053;-70
2022/06/24 11:10:59;;;;;;;1.83;1.83;;;24.10;71.10;;;;;;5069267;28;43841;-71
2022/06/24 11:13:32;;;;;;;1.80;1.80;;;24.00;71.40;;;;;;5043288;28;44082;-70
2022/06/24 11:16:00;;;;;;;1.53;1.53;;;23.90;71.70;;;;;;5061884;28;44019;-69
2022/06/24 11:18:29;;;;;;;1.60;1.60;;;23.80;72.70;;;;;;5061972;28;43928;-70
2022/06/24 11:20:59;;;;;;;1.70;1.70;;;23.80;72.10;;;;;;5062758;28;43901;-71
2022/06/24 11:23:28;;;;;;;1.70;1.70;;;23.70;72.20;;;;;;5062010;28;43893;-71
2022/06/24 11:26:01;;;;;;;1.70;1.70;;;23.70;72.20;;;;;;5068479;28;43975;-69
2022/06/24 11:28:29;;;;;;;1.67;1.67;;;23.70;72.40;;;;;;5068701;28;43971;-70
2022/06/24 11:31:13;;;;;;;1.53;1.53;;;23.70;72.50;;;;;;5068660;28;43401;-71
2022/06/24 11:33:41;;;;;;;1.80;1.80;;;23.60;72.40;;;;;;5068192;28;45059;-70
2022/06/24 11:36:09;;;;;;;1.70;1.70;;;23.60;73.90;;;;;;5068571;28;43957;-70
2022/06/24 11:38:50;;;;;;;1.70;1.70;;;23.70;73.20;;;;;;5068409;28;43844;-70
2022/06/24 11:41:26;;;;;;;1.50;1.50;;;23.80;72.90;;;;;;5068700;28;43950;-72
2022/06/24 11:44:14;;;;;;;1.50;1.50;;;23.90;72.60;;;;;;5068209;28;43932;-69
2022/06/24 11:47:06;;;;;;;1.80;1.80;;;24.10;72.10;;;;;;5067982;28;43839;-70
2022/06/24 11:49:58;;;;;;;1.57;1.57;;;24.20;71.60;;;;;;5068246;28;43798;-70
2022/06/24 11:52:26;;;;;;;1.60;1.60;;;24.40;71.10;;;;;;5068392;28;43850;-72
2022/06/24 11:54:54;;;;;;;1.50;1.50;;;24.50;70.70;;;;;;5068086;28;44970;-70
2022/06/24 11:57:25;;;;;;;1.40;1.40;;;24.60;70.40;;;;;;5067644;28;44052;-69
2022/06/24 12:00:05;;;;;;;1.60;1.60;;;24.70;70.20;;;;;;5067854;28;44022;-69
2022/06/24 12:02:55;;;;;;;1.40;1.40;;;24.80;70.00;;;;;;5067328;28;43365;-70
2022/06/24 12:05:42;;;;;;;1.77;1.77;;;24.80;69.70;;;;;;5060460;28;43967;-70
2022/06/24 12:08:30;;;;;;;1.67;1.67;;;24.80;69.40;;;;;;5064019;28;43992;-70
2022/06/24 12:11:24;;;;;;;1.70;1.70;;;24.80;69.60;;;;;;5068023;28;43927;-70
2022/06/24 12:14:12;;;;;;;1.60;1.60;;;24.60;70.10;;;;;;5063165;28;43415;-70
2022/06/24 12:17:16;;;;;;;1.60;1.60;;;24.40;70.30;;;;;;5049333;28;45652;-71
2022/06/24 12:20:00;;;;;;;1.70;1.70;;;24.20;70.60;;;;;;5067691;28;43900;-71
2022/06/24 12:22:29;;;;;;;1.50;1.50;;;24.00;71.10;;;;;;5067677;28;43971;-70
2022/06/24 12:25:16;;;;;;;1.43;1.43;;;24.00;71.50;;;;;;5067889;28;43915;-70
2022/06/24 12:28:45;;;;;;;1.60;1.60;;;23.90;71.70;;;;;;5060069;28;43939;-69
2022/06/24 12:31:26;;;;;;;1.53;1.53;;;23.80;72.00;;;;;;5044163;28;44077;-70
2022/06/24 12:40:34;;;;;;;1.70;1.70;;;23.70;72.30;;;;;;5066475;28;44003;-71
2022/06/24 12:43:26;;;;;;;1.43;1.43;;;23.70;72.40;;;;;;5051236;28;44032;-70
2022/06/24 12:46:23;;;;;;;1.57;1.57;;;23.70;72.50;;;;;;5066714;28;44044;-69
2022/06/24 12:52:24;;;;;;;1.47;1.47;;;23.60;73.00;;;;;;5065766;28;43834;-68
2022/06/24 12:55:12;;;;;;;1.33;1.33;;;23.60;73.30;;;;;;5061587;28;44008;-70
2022/06/24 12:57:56;;;;;;;1.50;1.40;;;23.70;73.10;;;;;;5051807;28;43952;-71
2022/06/24 13:00:35;;;;;;;1.40;1.40;;;23.90;72.70;;;;;;5067093;28;43460;-69
2022/06/24 13:03:05;;;;;;;1.30;1.30;;;24.10;72.20;;;;;;5066714;28;43877;-70
2022/06/24 13:05:35;;;;;;;1.50;1.50;;;24.20;71.60;;;;;;5060219;28;43904;-70
2022/06/24 13:08:03;;;;;;;1.40;1.40;;;24.30;71.20;;;;;;5066948;28;44040;-71
2022/06/24 13:10:32;;;;;;;1.30;1.30;;;24.50;70.90;;;;;;5067266;28;44058;-69
2022/06/24 13:13:08;;;;;;;1.47;1.40;;;24.60;70.60;;;;;;5066739;28;43844;-70
2022/06/24 13:15:37;;;;;;;1.50;1.50;;;24.60;70.20;;;;;;5066823;28;43373;-70
2022/06/24 13:18:06;;;;;;;1.43;1.43;;;24.70;70.00;;;;;;5066547;28;43976;-70
2022/06/24 13:20:36;;;;;;;1.30;1.30;;;24.80;69.70;;;;;;5067683;28;43955;-71
2022/06/24 13:23:05;;;;;;;1.27;1.27;;;24.70;69.60;;;;;;5066449;28;44639;-70
2022/06/24 13:25:33;;;;;;;1.37;1.37;;;24.70;69.90;;;;;;5066615;28;43929;-70
2022/06/24 13:28:01;;;;;;;1.20;1.20;;;24.50;70.30;;;;;;5066729;28;43842;-70
2022/06/24 13:30:29;;;;;;;1.20;1.20;;;24.40;70.50;;;;;;5067101;28;43940;-69
2022/06/24 13:32:57;;;;;;;1.27;1.27;;;24.20;70.70;;;;;;5066066;28;44065;-70
2022/06/24 13:35:25;;;;;;;1.40;1.40;;;24.10;71.00;;;;;;5066493;28;44014;-70